Time;durP1;ratioP1;P1;durP2;ratioP2;P2;SDS_P1;SDS_P2;PMS_P1;PMS_P2;Temp;Humidity;BMP_temperature;BMP_pressure;BME280_temperature;BME280_humidity;BME280_pressure;Samples;Min_cycle;Max_cycle;Signal;HPM_P1;HPM_P2
2021/05/31 00:00:15;;;;;;;14.47;13.77;;;13.50;99.90;;;;;;5051301;28;20475;-65
2021/05/31 00:02:42;;;;;;;15.53;14.73;;;13.40;99.90;;;;;;5051085;28;20503;-64
2021/05/31 00:05:10;;;;;;;15.77;14.90;;;13.40;99.90;;;;;;5051023;28;20931;-65
2021/05/31 00:07:36;;;;;;;14.20;13.60;;;13.30;99.90;;;;;;5051378;28;20448;-64
2021/05/31 00:10:03;;;;;;;14.47;13.67;;;13.20;99.90;;;;;;5051275;28;20532;-64
2021/05/31 00:12:29;;;;;;;15.17;14.37;;;13.20;99.90;;;;;;5051105;28;20457;-64
2021/05/31 00:14:57;;;;;;;15.20;14.23;;;13.10;99.90;;;;;;5051062;28;21002;-64
2021/05/31 00:17:25;;;;;;;14.23;13.50;;;13.10;99.90;;;;;;5051657;28;20494;-64
2021/05/31 00:19:53;;;;;;;14.60;13.90;;;13.10;99.90;;;;;;5051295;28;20490;-64
2021/05/31 00:22:20;;;;;;;14.53;13.73;;;13.10;99.90;;;;;;5050927;28;20555;-64
2021/05/31 00:24:47;;;;;;;14.53;13.37;;;13.00;99.90;;;;;;5050889;28;20444;-64
2021/05/31 00:27:14;;;;;;;14.03;13.37;;;13.00;99.90;;;;;;5051043;28;20451;-64
2021/05/31 00:29:41;;;;;;;14.63;13.47;;;12.90;99.90;;;;;;5051131;28;20444;-64
2021/05/31 00:32:08;;;;;;;13.97;13.37;;;12.90;99.90;;;;;;5050918;28;20469;-64
2021/05/31 00:34:34;;;;;;;14.17;13.57;;;12.80;99.90;;;;;;5050776;28;20440;-64
2021/05/31 00:37:01;;;;;;;14.83;14.03;;;12.80;99.90;;;;;;5051083;28;20463;-64
2021/05/31 00:39:27;;;;;;;14.50;13.80;;;12.80;99.90;;;;;;5050961;28;20808;-64
2021/05/31 00:41:54;;;;;;;15.03;14.27;;;12.80;99.90;;;;;;5051167;28;20491;-64
2021/05/31 00:44:21;;;;;;;13.90;13.13;;;12.70;99.90;;;;;;5051786;28;20444;-65
2021/05/31 00:46:48;;;;;;;14.37;13.70;;;12.70;99.90;;;;;;5053648;28;20444;-64
2021/05/31 00:49:16;;;;;;;14.83;13.83;;;12.70;99.90;;;;;;5054601;28;20795;-65
2021/05/31 00:51:43;;;;;;;13.53;12.93;;;12.60;99.90;;;;;;5054486;28;20469;-64
2021/05/31 00:54:10;;;;;;;13.80;13.10;;;12.60;99.90;;;;;;5054319;28;20846;-64
2021/05/31 00:56:38;;;;;;;14.10;13.30;;;12.60;99.90;;;;;;5054395;28;20440;-65
2021/05/31 00:59:04;;;;;;;14.00;13.30;;;12.60;99.90;;;;;;5054353;28;20444;-65
2021/05/31 01:01:30;;;;;;;14.37;13.73;;;12.50;99.90;;;;;;5053997;28;20905;-65
2021/05/31 01:03:57;;;;;;;14.87;14.03;;;12.50;99.90;;;;;;5054300;28;20440;-64
2021/05/31 01:06:28;;;;;;;13.57;12.93;;;12.50;99.90;;;;;;5054516;28;20445;-64
2021/05/31 01:08:59;;;;;;;13.50;12.97;;;12.50;99.90;;;;;;5054848;28;20478;-64
2021/05/31 01:11:32;;;;;;;15.80;14.87;;;12.40;99.90;;;;;;5054947;28;20534;-64
2021/05/31 01:14:08;;;;;;;13.47;12.80;;;12.40;99.90;;;;;;5054103;28;20451;-64
2021/05/31 01:16:40;;;;;;;16.80;15.50;;;12.40;99.90;;;;;;5054130;28;20513;-65
2021/05/31 01:19:15;;;;;;;15.27;14.30;;;12.30;99.90;;;;;;5054051;28;20447;-64
2021/05/31 01:21:55;;;;;;;15.00;14.10;;;12.30;99.90;;;;;;5053870;28;20467;-64
2021/05/31 01:24:31;;;;;;;14.80;14.00;;;12.30;99.90;;;;;;5053761;28;20444;-64
2021/05/31 01:27:08;;;;;;;14.60;13.80;;;12.20;99.90;;;;;;5054089;28;20443;-64
2021/05/31 01:29:38;;;;;;;14.43;13.83;;;12.20;99.90;;;;;;5053908;28;20498;-64
2021/05/31 01:32:05;;;;;;;14.23;13.50;;;12.20;99.90;;;;;;5053692;28;20518;-65
2021/05/31 01:34:35;;;;;;;15.23;14.20;;;12.20;99.90;;;;;;5053620;28;20955;-65
2021/05/31 01:37:10;;;;;;;13.93;13.13;;;12.20;99.90;;;;;;5053659;28;20960;-64
2021/05/31 01:39:40;;;;;;;13.17;12.47;;;12.20;99.90;;;;;;5053606;28;20463;-65
2021/05/31 01:42:07;;;;;;;14.83;14.03;;;12.20;99.90;;;;;;5053297;28;20484;-64
2021/05/31 01:44:34;;;;;;;13.50;12.90;;;12.30;99.90;;;;;;5053449;28;20440;-64
2021/05/31 01:47:02;;;;;;;14.87;13.80;;;12.30;99.90;;;;;;5053503;28;20444;-64
2021/05/31 01:49:29;;;;;;;14.30;13.50;;;12.30;99.90;;;;;;5053551;28;20444;-64
2021/05/31 01:51:56;;;;;;;14.40;13.30;;;12.30;99.90;;;;;;5053326;28;20460;-65
2021/05/31 01:54:23;;;;;;;14.10;13.40;;;12.30;99.90;;;;;;5053150;28;20437;-65
2021/05/31 01:56:51;;;;;;;14.30;13.50;;;12.30;99.90;;;;;;5052797;28;20506;-64
2021/05/31 01:59:18;;;;;;;14.10;13.30;;;12.30;99.90;;;;;;5052662;28;20451;-65
2021/05/31 02:01:46;;;;;;;14.50;13.50;;;12.20;99.90;;;;;;5052942;28;20472;-65
2021/05/31 02:04:13;;;;;;;15.90;14.80;;;12.20;99.90;;;;;;5052968;28;20486;-64
2021/05/31 02:06:39;;;;;;;14.17;13.33;;;12.20;99.90;;;;;;5053130;28;20939;-64
2021/05/31 02:09:06;;;;;;;15.40;14.20;;;12.20;99.90;;;;;;5053028;28;20455;-65
2021/05/31 02:11:40;;;;;;;14.53;13.83;;;12.20;99.90;;;;;;5052848;28;20494;-64
2021/05/31 02:14:12;;;;;;;14.70;14.00;;;12.20;99.90;;;;;;5052805;28;20450;-64
2021/05/31 02:16:41;;;;;;;15.90;14.67;;;12.20;99.90;;;;;;5053069;28;20513;-64
2021/05/31 02:19:10;;;;;;;16.20;15.10;;;12.10;99.90;;;;;;5052886;28;20444;-64
2021/05/31 02:21:41;;;;;;;14.67;13.90;;;12.00;99.90;;;;;;5052679;28;20521;-65
2021/05/31 02:24:10;;;;;;;16.07;14.60;;;12.00;99.90;;;;;;5052625;28;20447;-64
2021/05/31 02:26:37;;;;;;;15.60;14.70;;;11.90;99.90;;;;;;5052735;28;20451;-64
2021/05/31 02:29:04;;;;;;;15.60;14.50;;;11.90;99.90;;;;;;5052716;28;20854;-64
2021/05/31 02:31:31;;;;;;;14.33;13.60;;;11.90;99.90;;;;;;5052672;28;20471;-64
2021/05/31 02:33:58;;;;;;;15.93;14.97;;;11.80;99.90;;;;;;5052326;28;21140;-65
2021/05/31 02:36:25;;;;;;;16.03;15.07;;;11.80;99.90;;;;;;5052616;28;20440;-64
2021/05/31 02:38:52;;;;;;;17.23;15.77;;;11.70;99.90;;;;;;5052359;28;20442;-64
2021/05/31 02:41:19;;;;;;;15.47;14.27;;;11.70;99.90;;;;;;5052464;28;20464;-64
2021/05/31 02:43:45;;;;;;;15.00;14.10;;;11.60;99.90;;;;;;5052055;28;20486;-64
2021/05/31 02:46:11;;;;;;;15.07;14.17;;;11.60;99.90;;;;;;5052453;28;20451;-64
2021/05/31 02:48:37;;;;;;;15.43;14.50;;;11.50;99.90;;;;;;5052502;28;20451;-64
2021/05/31 02:51:04;;;;;;;15.60;14.50;;;11.40;99.90;;;;;;5052188;28;20444;-65
2021/05/31 02:53:31;;;;;;;14.67;13.80;;;11.40;99.90;;;;;;5052265;28;20440;-64
2021/05/31 02:55:59;;;;;;;16.17;14.83;;;11.30;99.90;;;;;;5052098;28;20487;-65
2021/05/31 02:58:25;;;;;;;15.53;14.37;;;11.20;99.90;;;;;;5052178;28;20803;-64
2021/05/31 03:00:52;;;;;;;15.90;14.90;;;11.20;99.90;;;;;;5051867;28;20441;-64
2021/05/31 03:03:18;;;;;;;17.30;15.97;;;11.10;99.90;;;;;;5052060;28;20476;-64
2021/05/31 03:05:44;;;;;;;17.23;16.20;;;11.10;99.90;;;;;;5051770;28;20444;-64
2021/05/31 03:08:11;;;;;;;16.23;15.03;;;11.10;99.90;;;;;;5051834;28;20459;-64
2021/05/31 03:10:37;;;;;;;18.03;16.83;;;11.00;99.90;;;;;;5051816;28;20444;-64
2021/05/31 03:13:05;;;;;;;16.67;15.70;;;11.00;99.90;;;;;;5051780;28;20459;-64
2021/05/31 03:15:32;;;;;;;16.27;15.07;;;10.90;99.90;;;;;;5051645;28;20443;-64
2021/05/31 03:17:58;;;;;;;16.37;15.30;;;10.90;99.90;;;;;;5051891;28;20451;-64
2021/05/31 03:20:26;;;;;;;15.70;14.80;;;10.90;99.90;;;;;;5051927;28;20440;-64
2021/05/31 03:22:53;;;;;;;16.73;15.10;;;10.80;99.90;;;;;;5051355;28;20476;-65
2021/05/31 03:25:19;;;;;;;17.13;15.53;;;10.80;99.90;;;;;;5051709;28;20448;-65
2021/05/31 03:27:46;;;;;;;17.20;16.20;;;10.80;99.90;;;;;;5051739;28;20444;-65
2021/05/31 03:30:15;;;;;;;16.60;15.50;;;10.70;99.90;;;;;;5051779;28;20894;-65
2021/05/31 03:32:42;;;;;;;18.27;16.73;;;10.80;99.90;;;;;;5051586;28;20460;-65
2021/05/31 03:35:11;;;;;;;16.77;15.73;;;10.80;99.90;;;;;;5051541;28;20443;-65
2021/05/31 03:37:38;;;;;;;18.30;16.70;;;10.80;99.90;;;;;;5051498;28;21000;-65
2021/05/31 03:40:06;;;;;;;17.57;16.30;;;10.80;99.90;;;;;;5051554;28;20459;-65
2021/05/31 03:42:32;;;;;;;17.43;16.27;;;10.80;99.90;;;;;;5051141;28;20848;-65
2021/05/31 03:44:58;;;;;;;16.90;15.80;;;10.90;99.90;;;;;;5051300;28;20448;-65
2021/05/31 03:47:26;;;;;;;17.80;16.30;;;10.90;99.90;;;;;;5051535;28;20451;-65
2021/05/31 03:49:52;;;;;;;17.60;16.20;;;11.00;99.90;;;;;;5051316;28;20467;-65
2021/05/31 03:52:18;;;;;;;17.90;14.63;;;11.00;99.90;;;;;;5051477;28;20468;-65
2021/05/31 03:54:44;;;;;;;15.57;14.50;;;11.00;99.90;;;;;;5051265;28;20862;-65
2021/05/31 03:57:10;;;;;;;16.50;15.30;;;11.10;99.90;;;;;;5051288;28;20935;-65
2021/05/31 03:59:37;;;;;;;18.10;16.67;;;11.10;99.90;;;;;;5051409;28;20498;-65
2021/05/31 04:02:03;;;;;;;16.90;15.73;;;11.10;99.90;;;;;;5050981;28;21113;-65
2021/05/31 04:04:40;;;;;;;18.33;16.80;;;11.10;99.90;;;;;;5051151;28;20444;-65
2021/05/31 04:12:34;;;;;;;16.37;15.03;;;11.20;99.90;;;;;;5051275;28;20447;-65
2021/05/31 04:15:01;;;;;;;17.17;15.97;;;11.30;99.90;;;;;;5051003;28;20444;-65
2021/05/31 04:17:27;;;;;;;16.37;15.30;;;11.40;99.90;;;;;;5051150;28;20448;-65
2021/05/31 04:19:54;;;;;;;17.50;15.90;;;11.50;99.90;;;;;;5051002;28;20988;-65
2021/05/31 04:22:21;;;;;;;17.43;16.13;;;11.60;99.90;;;;;;5054079;28;20486;-65
2021/05/31 04:24:47;;;;;;;20.20;18.60;;;11.60;99.90;;;;;;5054878;28;20823;-65
2021/05/31 04:27:13;;;;;;;20.50;18.70;;;11.70;99.90;;;;;;5055072;28;20497;-65
2021/05/31 04:29:39;;;;;;;18.00;16.57;;;11.80;99.90;;;;;;5055012;28;20448;-65
2021/05/31 04:32:06;;;;;;;17.73;16.57;;;11.90;99.90;;;;;;5054758;28;20468;-65
2021/05/31 04:34:32;;;;;;;17.40;16.30;;;11.90;99.90;;;;;;5054677;28;20444;-65
2021/05/31 04:37:00;;;;;;;17.87;16.77;;;12.10;99.90;;;;;;5055054;28;20440;-65
2021/05/31 04:39:26;;;;;;;17.00;15.83;;;12.20;99.90;;;;;;5054915;28;20471;-66
2021/05/31 04:41:53;;;;;;;17.13;16.00;;;12.30;99.90;;;;;;5054695;28;20467;-65
2021/05/31 04:44:19;;;;;;;20.03;18.53;;;12.40;99.90;;;;;;5054520;28;20566;-65
2021/05/31 04:46:45;;;;;;;19.40;17.80;;;12.50;99.90;;;;;;5054636;28;20451;-65
2021/05/31 04:49:11;;;;;;;18.37;16.97;;;12.60;99.90;;;;;;5054574;28;20444;-65
2021/05/31 04:51:38;;;;;;;17.63;16.53;;;12.70;99.90;;;;;;5054136;28;20490;-65
2021/05/31 04:54:06;;;;;;;18.00;16.80;;;12.80;99.90;;;;;;5054050;28;20535;-65
2021/05/31 04:56:32;;;;;;;18.40;17.10;;;12.90;99.90;;;;;;5054201;28;20447;-65
2021/05/31 04:58:58;;;;;;;18.50;17.20;;;13.00;99.90;;;;;;5054215;28;20448;-65
2021/05/31 05:01:25;;;;;;;17.73;16.60;;;13.10;99.90;;;;;;5054098;28;20476;-65
2021/05/31 05:03:51;;;;;;;17.33;16.33;;;13.30;99.90;;;;;;5053932;28;20472;-66
2021/05/31 05:06:17;;;;;;;18.27;17.23;;;13.40;99.90;;;;;;5053971;28;20962;-65
2021/05/31 05:08:44;;;;;;;19.00;17.60;;;13.50;99.90;;;;;;5054232;28;20448;-65
2021/05/31 05:11:12;;;;;;;19.13;17.93;;;13.60;99.90;;;;;;5053864;28;20474;-66
2021/05/31 05:13:38;;;;;;;17.97;16.97;;;13.70;99.90;;;;;;5054219;28;20443;-65
2021/05/31 05:16:05;;;;;;;20.27;18.33;;;13.90;99.90;;;;;;5053636;28;20475;-65
2021/05/31 05:18:31;;;;;;;18.83;17.63;;;13.90;99.90;;;;;;5053791;28;20927;-66
2021/05/31 05:20:59;;;;;;;19.07;17.87;;;14.00;99.90;;;;;;5053620;28;20502;-66
2021/05/31 05:23:25;;;;;;;19.17;17.77;;;14.10;99.90;;;;;;5053826;28;20472;-65
2021/05/31 05:25:51;;;;;;;19.93;18.23;;;14.30;99.90;;;;;;5053603;28;20440;-65
2021/05/31 05:28:19;;;;;;;18.60;17.40;;;14.40;99.90;;;;;;5054001;28;21020;-65
2021/05/31 05:30:45;;;;;;;18.83;17.77;;;14.50;99.90;;;;;;5053694;28;20448;-66
2021/05/31 05:33:11;;;;;;;19.07;17.77;;;14.60;99.90;;;;;;5053453;28;20440;-65
2021/05/31 05:35:40;;;;;;;18.43;17.13;;;14.70;99.90;;;;;;5053412;28;20459;-66
2021/05/31 05:38:15;;;;;;;18.80;17.57;;;14.80;99.90;;;;;;5053782;28;20453;-66
2021/05/31 05:43:36;;;;;;;18.90;17.70;;;15.00;99.90;;;;;;5053199;28;20517;-66
2021/05/31 05:46:12;;;;;;;20.10;18.40;;;15.10;99.90;;;;;;5053245;28;20459;-66
2021/05/31 05:48:38;;;;;;;19.20;17.80;;;15.30;99.90;;;;;;5053191;28;20471;-66
2021/05/31 05:51:06;;;;;;;18.60;17.10;;;15.40;99.90;;;;;;5053151;28;20472;-66
2021/05/31 05:53:33;;;;;;;18.80;17.57;;;15.50;99.90;;;;;;5053562;28;20444;-65
2021/05/31 05:55:59;;;;;;;20.47;17.97;;;15.60;99.90;;;;;;5053244;28;20448;-66
2021/05/31 05:58:29;;;;;;;17.93;17.00;;;15.70;99.90;;;;;;5053125;28;20792;-66
2021/05/31 06:00:57;;;;;;;17.83;16.90;;;15.80;99.90;;;;;;5052721;28;20445;-66
2021/05/31 06:03:23;;;;;;;18.50;17.27;;;15.90;99.90;;;;;;5052935;28;20475;-66
2021/05/31 06:05:49;;;;;;;19.87;18.47;;;16.00;99.90;;;;;;5052737;28;20448;-66
2021/05/31 06:08:15;;;;;;;19.10;17.80;;;16.20;99.90;;;;;;5052826;28;20467;-66
2021/05/31 06:10:42;;;;;;;19.03;17.80;;;16.30;99.80;;;;;;5052804;28;20443;-66
2021/05/31 06:13:08;;;;;;;17.87;17.03;;;16.40;99.40;;;;;;5052580;28;20457;-66
2021/05/31 06:15:36;;;;;;;18.93;17.93;;;16.50;98.50;;;;;;5052687;28;20447;-66
2021/05/31 06:18:03;;;;;;;19.03;17.90;;;16.60;97.70;;;;;;5076251;23;20492;-69
2021/05/31 06:20:29;;;;;;;18.77;17.63;;;16.70;97.20;;;;;;5052320;28;20432;-69
2021/05/31 06:22:55;;;;;;;18.63;17.33;;;16.80;96.90;;;;;;5052132;28;20480;-68
2021/05/31 06:25:21;;;;;;;19.23;18.23;;;16.90;96.50;;;;;;5052253;28;20452;-69
2021/05/31 06:27:48;;;;;;;19.03;17.83;;;17.00;96.40;;;;;;5052247;28;20448;-68
2021/05/31 06:30:15;;;;;;;18.00;17.10;;;17.10;95.90;;;;;;5052233;28;20432;-67
2021/05/31 06:32:42;;;;;;;19.47;18.47;;;17.20;95.50;;;;;;5052153;28;20464;-66
2021/05/31 06:35:09;;;;;;;18.90;17.90;;;17.30;95.80;;;;;;5051860;28;20444;-69
2021/05/31 06:37:38;;;;;;;19.90;18.70;;;17.40;96.50;;;;;;5052032;28;20514;-66
2021/05/31 06:40:06;;;;;;;20.50;19.30;;;17.50;97.00;;;;;;5052136;28;20483;-66
2021/05/31 06:42:32;;;;;;;18.17;17.17;;;17.50;97.10;;;;;;5051869;28;20483;-71
2021/05/31 06:44:59;;;;;;;18.53;17.63;;;17.60;96.60;;;;;;5051061;28;20440;-68
2021/05/31 06:47:25;;;;;;;19.07;18.00;;;17.70;96.80;;;;;;5051689;28;20460;-67
2021/05/31 06:49:55;;;;;;;18.27;17.47;;;17.70;95.40;;;;;;5051748;28;20502;-67
2021/05/31 06:52:21;;;;;;;18.17;17.07;;;17.80;95.80;;;;;;5051773;28;20448;-66
2021/05/31 06:54:48;;;;;;;17.70;16.90;;;17.90;95.20;;;;;;5051540;28;20456;-66
2021/05/31 06:57:14;;;;;;;18.33;17.07;;;17.90;95.20;;;;;;5051550;28;20479;-66
2021/05/31 06:59:40;;;;;;;18.47;17.63;;;17.90;94.80;;;;;;5051834;28;20452;-67
2021/05/31 07:02:07;;;;;;;19.60;18.50;;;18.00;96.00;;;;;;5051478;28;20456;-68
2021/05/31 07:04:33;;;;;;;20.20;19.10;;;18.00;96.00;;;;;;5051298;28;20594;-67
2021/05/31 07:07:01;;;;;;;20.10;18.93;;;18.10;94.50;;;;;;5051856;28;20482;-67
2021/05/31 07:09:27;;;;;;;19.77;18.50;;;18.20;95.20;;;;;;5051594;28;20448;-66
2021/05/31 07:11:53;;;;;;;20.73;19.43;;;18.30;94.80;;;;;;5051573;28;20452;-66
2021/05/31 07:14:21;;;;;;;19.70;18.80;;;18.40;94.00;;;;;;5051270;28;20453;-66
2021/05/31 07:16:48;;;;;;;19.30;18.40;;;18.40;93.70;;;;;;5051403;28;20449;-66
2021/05/31 07:19:14;;;;;;;19.30;18.37;;;18.50;92.90;;;;;;5051389;28;20452;-67
2021/05/31 07:21:41;;;;;;;21.43;19.73;;;18.60;91.50;;;;;;5051378;28;20973;-66
2021/05/31 07:24:10;;;;;;;19.80;18.90;;;18.70;90.90;;;;;;5051122;28;20621;-66
2021/05/31 07:26:37;;;;;;;19.87;18.90;;;18.80;90.40;;;;;;5051169;28;20445;-67
2021/05/31 07:29:04;;;;;;;19.70;18.70;;;18.80;82.50;;;;;;5051414;28;20642;-66
2021/05/31 07:31:30;;;;;;;20.03;19.13;;;18.90;82.80;;;;;;5051042;28;20456;-66
2021/05/31 07:33:56;;;;;;;20.10;19.13;;;19.00;83.30;;;;;;5051208;28;20440;-66
2021/05/31 07:36:23;;;;;;;20.07;19.03;;;19.10;84.30;;;;;;5050919;28;20444;-65
2021/05/31 07:38:50;;;;;;;20.70;19.60;;;19.20;84.70;;;;;;5051121;28;20475;-65
2021/05/31 07:41:18;;;;;;;20.00;18.80;;;19.30;83.20;;;;;;5050975;28;20527;-66
2021/05/31 07:43:44;;;;;;;19.23;18.23;;;19.30;81.70;;;;;;5050963;28;20590;-66
2021/05/31 07:46:12;;;;;;;20.27;19.00;;;19.40;80.40;;;;;;5050947;28;20590;-65
2021/05/31 07:48:39;;;;;;;23.47;21.87;;;19.50;77.70;;;;;;5050991;28;20472;-66
2021/05/31 07:51:15;;;;;;;19.40;18.50;;;19.50;77.20;;;;;;5050973;28;20456;-67
2021/05/31 07:53:42;;;;;;;20.13;19.03;;;19.60;75.80;;;;;;5051041;28;20451;-67
2021/05/31 07:56:09;;;;;;;20.13;18.60;;;19.70;74.80;;;;;;5053939;28;20470;-67
2021/05/31 07:58:36;;;;;;;19.13;18.23;;;19.90;75.20;;;;;;5055026;28;20464;-65
2021/05/31 08:01:03;;;;;;;19.57;18.57;;;20.00;75.00;;;;;;5055141;28;20436;-67
2021/05/31 08:03:30;;;;;;;19.87;18.90;;;20.10;74.40;;;;;;5054835;28;20488;-65
2021/05/31 08:05:56;;;;;;;21.00;19.70;;;20.20;72.80;;;;;;5054741;28;20452;-68
2021/05/31 08:08:22;;;;;;;19.93;18.90;;;20.20;72.00;;;;;;5054881;28;20498;-67
2021/05/31 08:10:49;;;;;;;20.13;18.93;;;20.30;69.70;;;;;;5054801;28;20961;-66
2021/05/31 08:13:15;;;;;;;19.83;18.83;;;20.40;69.20;;;;;;5054732;28;20441;-67
2021/05/31 08:15:42;;;;;;;20.83;19.73;;;20.50;68.50;;;;;;5054615;28;20455;-66
2021/05/31 08:18:10;;;;;;;20.50;19.40;;;20.70;69.40;;;;;;5054566;28;20541;-66
2021/05/31 08:20:36;;;;;;;19.57;18.67;;;20.70;67.70;;;;;;5054613;28;20787;-65
2021/05/31 08:23:02;;;;;;;19.80;18.80;;;20.80;68.90;;;;;;5054682;28;20483;-66
2021/05/31 08:25:29;;;;;;;20.30;19.20;;;20.90;66.70;;;;;;5054422;28;20471;-67
2021/05/31 08:27:55;;;;;;;21.10;20.00;;;21.00;66.30;;;;;;5054478;28;20974;-67
2021/05/31 08:30:22;;;;;;;19.50;18.70;;;21.10;66.70;;;;;;5054515;28;20447;-67
2021/05/31 08:32:50;;;;;;;20.37;19.37;;;21.30;67.50;;;;;;5054453;28;20927;-66
2021/05/31 08:35:16;;;;;;;21.13;19.80;;;21.40;64.80;;;;;;5054261;28;20459;-66
2021/05/31 08:37:42;;;;;;;20.43;19.17;;;21.50;63.60;;;;;;5054390;28;20991;-66
2021/05/31 08:40:11;;;;;;;21.17;20.07;;;21.50;64.10;;;;;;5054347;28;20452;-66
2021/05/31 08:42:38;;;;;;;21.07;20.07;;;21.50;62.80;;;;;;5054261;28;20491;-66
2021/05/31 08:45:05;;;;;;;20.67;19.47;;;21.30;62.00;;;;;;5054079;28;20455;-67
2021/05/31 08:47:32;;;;;;;20.80;19.60;;;21.40;62.80;;;;;;5053928;28;20511;-67
2021/05/31 08:50:00;;;;;;;20.67;19.67;;;21.50;62.00;;;;;;5054246;28;20452;-66
2021/05/31 08:52:26;;;;;;;21.50;20.40;;;21.70;61.70;;;;;;5054023;28;20846;-66
2021/05/31 08:54:52;;;;;;;20.93;19.93;;;21.80;61.10;;;;;;5053646;28;20482;-66
2021/05/31 08:57:20;;;;;;;21.10;19.87;;;21.90;60.30;;;;;;5053745;28;21028;-66
2021/05/31 08:59:46;;;;;;;20.40;19.07;;;22.00;59.00;;;;;;5053815;28;20826;-66
2021/05/31 09:02:12;;;;;;;21.30;19.90;;;22.20;59.30;;;;;;5053795;28;20542;-67
2021/05/31 09:04:45;;;;;;;20.97;19.53;;;22.30;59.40;;;;;;5053272;28;21011;-66
2021/05/31 09:07:13;;;;;;;21.23;20.13;;;22.30;59.80;;;;;;5052711;28;20871;-67
2021/05/31 09:09:40;;;;;;;21.83;20.27;;;22.40;59.20;;;;;;5053635;28;20443;-67
2021/05/31 09:12:09;;;;;;;22.43;21.03;;;22.60;57.90;;;;;;5053542;28;20487;-66
2021/05/31 09:14:36;;;;;;;21.67;20.23;;;22.70;57.20;;;;;;5053309;28;20444;-68
2021/05/31 09:17:02;;;;;;;22.10;20.60;;;22.60;57.50;;;;;;5053422;28;20859;-67
2021/05/31 09:19:28;;;;;;;22.17;21.07;;;22.50;58.10;;;;;;5053351;28;21021;-67
2021/05/31 09:21:54;;;;;;;21.40;20.30;;;22.80;56.90;;;;;;5053426;28;20444;-67
2021/05/31 09:24:24;;;;;;;22.00;20.70;;;23.00;56.70;;;;;;5053262;28;20484;-67
2021/05/31 09:26:52;;;;;;;22.13;20.83;;;23.40;56.50;;;;;;5053205;28;20539;-67
2021/05/31 09:29:20;;;;;;;23.20;21.57;;;23.70;57.00;;;;;;5053364;28;20874;-67
2021/05/31 09:31:57;;;;;;;23.00;21.50;;;23.80;54.60;;;;;;5053183;28;20543;-67
2021/05/31 09:34:24;;;;;;;22.03;20.90;;;23.70;54.10;;;;;;5053040;28;20447;-68
2021/05/31 09:36:53;;;;;;;21.70;20.53;;;23.90;53.80;;;;;;5053289;28;20475;-67
2021/05/31 09:39:27;;;;;;;23.10;21.20;;;24.00;53.10;;;;;;5053275;28;20444;-67
2021/05/31 09:42:02;;;;;;;20.67;19.57;;;23.90;53.50;;;;;;5053176;28;20509;-67
2021/05/31 09:44:28;;;;;;;22.93;21.10;;;23.50;53.70;;;;;;5052742;28;20490;-68
2021/05/31 09:46:54;;;;;;;20.80;19.77;;;23.80;54.00;;;;;;5052870;28;20464;-68
2021/05/31 09:49:23;;;;;;;21.17;20.17;;;23.90;51.30;;;;;;5053037;28;20801;-67
2021/05/31 09:51:54;;;;;;;20.60;19.60;;;24.10;50.80;;;;;;5053042;28;20452;-68
2021/05/31 09:54:30;;;;;;;20.20;19.30;;;24.30;50.40;;;;;;5052875;28;20440;-69
2021/05/31 09:56:56;;;;;;;21.07;19.90;;;24.70;49.60;;;;;;5052771;28;20460;-67
2021/05/31 09:59:26;;;;;;;20.33;19.20;;;24.50;48.70;;;;;;5052861;28;20444;-67
2021/05/31 10:01:57;;;;;;;21.70;20.43;;;24.50;49.40;;;;;;5052804;28;20480;-67
2021/05/31 10:04:29;;;;;;;20.20;19.10;;;24.90;49.20;;;;;;5052517;28;20487;-68
2021/05/31 10:07:00;;;;;;;23.20;21.93;;;25.20;48.30;;;;;;5052649;28;20479;-67
2021/05/31 10:09:30;;;;;;;21.50;20.27;;;25.10;48.90;;;;;;5052733;28;20449;-67
2021/05/31 10:12:00;;;;;;;21.17;20.17;;;25.00;49.10;;;;;;5052545;28;20502;-67
2021/05/31 10:14:26;;;;;;;21.63;20.63;;;24.70;48.80;;;;;;5052336;28;20445;-66
2021/05/31 10:16:53;;;;;;;20.93;20.00;;;25.20;51.00;;;;;;5052179;28;20470;-66
2021/05/31 10:19:21;;;;;;;21.60;20.63;;;25.80;48.40;;;;;;5051567;28;20455;-69
2021/05/31 10:21:47;;;;;;;21.90;20.43;;;26.50;45.30;;;;;;5052422;28;20448;-67
2021/05/31 10:24:13;;;;;;;20.37;19.43;;;26.60;45.60;;;;;;5052361;28;20927;-67
2021/05/31 10:26:42;;;;;;;20.17;19.27;;;26.70;45.70;;;;;;5051819;28;20509;-66
2021/05/31 10:29:09;;;;;;;20.03;19.23;;;26.30;43.80;;;;;;5052203;28;20963;-67
2021/05/31 10:31:43;;;;;;;20.50;19.20;;;26.10;43.40;;;;;;5052374;28;20502;-67
2021/05/31 10:34:18;;;;;;;20.97;20.17;;;26.10;44.80;;;;;;5052378;28;20448;-68
2021/05/31 10:36:49;;;;;;;20.40;19.63;;;26.30;44.20;;;;;;5051968;28;20450;-68
2021/05/31 10:39:22;;;;;;;20.77;19.83;;;26.50;44.50;;;;;;5052038;28;20939;-67
2021/05/31 10:41:50;;;;;;;20.53;19.53;;;26.70;44.10;;;;;;5051972;28;20463;-68
2021/05/31 10:44:18;;;;;;;21.37;20.37;;;27.00;43.20;;;;;;5051779;28;20514;-68
2021/05/31 10:46:45;;;;;;;20.70;19.90;;;27.30;41.00;;;;;;5051676;28;20452;-69
2021/05/31 10:49:18;;;;;;;20.47;19.50;;;27.60;41.50;;;;;;5051857;28;20456;-68
2021/05/31 10:51:45;;;;;;;21.13;20.30;;;27.90;41.00;;;;;;5051935;28;20448;-67
2021/05/31 10:54:12;;;;;;;21.30;20.30;;;28.20;39.50;;;;;;5051676;28;20440;-68
2021/05/31 10:56:41;;;;;;;20.70;19.87;;;28.00;39.50;;;;;;5051383;28;20448;-67
2021/05/31 10:59:09;;;;;;;20.67;19.67;;;27.90;38.50;;;;;;5051677;28;20546;-69
2021/05/31 11:01:38;;;;;;;20.77;19.97;;;27.60;37.50;;;;;;5051604;28;20451;-69
2021/05/31 11:04:10;;;;;;;21.17;20.27;;;27.50;39.20;;;;;;5051564;28;21010;-67
2021/05/31 11:06:45;;;;;;;21.20;20.20;;;27.30;39.80;;;;;;5051531;28;20535;-68
2021/05/31 11:09:13;;;;;;;20.27;19.37;;;26.90;39.60;;;;;;5051555;28;20444;-67
2021/05/31 11:11:41;;;;;;;21.53;20.53;;;26.90;39.90;;;;;;5051355;28;20443;-67
2021/05/31 11:14:10;;;;;;;20.80;19.93;;;26.90;40.20;;;;;;5051458;28;20819;-69
2021/05/31 11:16:51;;;;;;;21.70;20.60;;;27.30;40.00;;;;;;5050833;28;20455;-67
2021/05/31 11:19:17;;;;;;;21.60;20.50;;;27.40;39.50;;;;;;5051504;28;20838;-68
2021/05/31 11:21:44;;;;;;;20.30;19.40;;;27.50;39.60;;;;;;5051028;28;20449;-67
2021/05/31 11:24:13;;;;;;;20.70;19.77;;;27.50;39.30;;;;;;5051012;28;20916;-68
2021/05/31 11:26:42;;;;;;;20.40;19.60;;;27.10;39.70;;;;;;5050919;28;20848;-67
2021/05/31 11:29:11;;;;;;;21.80;20.70;;;27.00;39.50;;;;;;5051093;28;20463;-68
2021/05/31 11:31:40;;;;;;;23.30;22.10;;;27.50;38.70;;;;;;5051122;28;20456;-67
2021/05/31 11:34:07;;;;;;;22.90;21.87;;;28.30;37.70;;;;;;5051189;28;20444;-68
2021/05/31 11:36:36;;;;;;;22.77;21.77;;;29.70;37.80;;;;;;5050826;28;20442;-68
2021/05/31 11:39:07;;;;;;;21.90;21.00;;;31.70;36.10;;;;;;5051152;28;20443;-68
2021/05/31 11:41:38;;;;;;;21.83;20.93;;;31.70;34.70;;;;;;5051046;28;20474;-66
2021/05/31 11:44:06;;;;;;;24.23;22.63;;;34.40;32.50;;;;;;5051362;28;20490;-65
2021/05/31 11:46:51;;;;;;;23.63;22.10;;;36.20;30.20;;;;;;5051178;28;20263;-66
2021/05/31 11:49:17;;;;;;;23.30;22.25;;;38.10;28.20;;;;;;5051109;28;20543;-66
2021/05/31 11:51:55;;;;;;;24.85;23.85;;;41.20;25.70;;;;;;5050920;28;20212;-66
2021/05/31 11:54:22;;;;;;;22.00;21.00;;;41.30;23.60;;;;;;5050935;28;20197;-66
2021/05/31 11:56:48;;;;;;;23.15;22.25;;;42.80;23.50;;;;;;5050460;28;20205;-66
2021/05/31 11:59:16;;;;;;;23.30;22.38;;;44.00;22.70;;;;;;5050856;28;20208;-66
2021/05/31 12:01:50;;;;;;;22.52;21.73;;;45.20;20.90;;;;;;5050948;28;20231;-67
2021/05/31 12:04:16;;;;;;;23.40;22.25;;;45.70;20.80;;;;;;5050775;28;20229;-67
2021/05/31 12:06:43;;;;;;;22.90;22.02;;;46.60;19.90;;;;;;5050536;28;20201;-67
2021/05/31 12:09:16;;;;;;;22.55;21.65;;;45.80;19.30;;;;;;5050899;28;20218;-66
2021/05/31 12:11:42;;;;;;;22.15;21.27;;;45.40;19.40;;;;;;5050835;28;20201;-66
2021/05/31 12:14:08;;;;;;;22.73;21.77;;;46.20;19.10;;;;;;5050766;28;20197;-66
2021/05/31 12:16:35;;;;;;;23.25;22.25;;;46.20;19.10;;;;;;5050305;28;20560;-68
2021/05/31 12:19:13;;;;;;;23.33;22.42;;;47.70;18.90;;;;;;5051346;28;20208;-67
2021/05/31 12:21:40;;;;;;;22.00;21.20;;;48.50;18.10;;;;;;5050724;28;20216;-66
2021/05/31 12:24:08;;;;;;;22.52;21.63;;;48.30;18.20;;;;;;5050656;28;20274;-66
2021/05/31 12:26:34;;;;;;;22.02;21.05;;;47.90;18.00;;;;;;5050312;28;20201;-66
2021/05/31 12:29:03;;;;;;;23.98;22.98;;;48.70;17.80;;;;;;5050524;28;20201;-66
2021/05/31 12:31:33;;;;;;;22.73;21.83;;;47.30;17.20;;;;;;5050416;28;20271;-66
2021/05/31 12:33:59;;;;;;;22.70;21.88;;;47.40;18.10;;;;;;5050514;28;20276;-67
2021/05/31 12:36:29;;;;;;;22.65;21.58;;;48.10;17.80;;;;;;5050297;28;20205;-67
2021/05/31 12:38:57;;;;;;;24.17;23.08;;;49.00;17.50;;;;;;5050485;28;20240;-67